sensor_id;sensor_type;location;lat;lon;timestamp;temperature;humidity
32173;DHT22;18679;45.190;5.722;2022-12-07T00:02:47;7.30;63.40
32173;DHT22;18679;45.190;5.722;2022-12-07T00:05:47;7.30;63.40
32173;DHT22;18679;45.190;5.722;2022-12-07T00:08:48;7.20;63.30
32173;DHT22;18679;45.190;5.722;2022-12-07T00:11:50;7.20;63.40
32173;DHT22;18679;45.190;5.722;2022-12-07T00:14:51;7.20;63.40
32173;DHT22;18679;45.190;5.722;2022-12-07T00:17:52;7.20;63.40
32173;DHT22;18679;45.190;5.722;2022-12-07T00:21:02;7.30;63.60
32173;DHT22;18679;45.190;5.722;2022-12-07T00:24:05;7.30;63.50
32173;DHT22;18679;45.190;5.722;2022-12-07T00:27:07;7.20;63.30
32173;DHT22;18679;45.190;5.722;2022-12-07T00:30:09;7.20;63.40
32173;DHT22;18679;45.190;5.722;2022-12-07T00:33:10;7.20;63.50
32173;DHT22;18679;45.190;5.722;2022-12-07T00:36:17;7.20;63.50
32173;DHT22;18679;45.190;5.722;2022-12-07T00:39:18;7.20;63.60
32173;DHT22;18679;45.190;5.722;2022-12-07T00:42:19;7.10;63.60
32173;DHT22;18679;45.190;5.722;2022-12-07T00:45:19;7.10;63.60
32173;DHT22;18679;45.190;5.722;2022-12-07T00:48:22;7.10;63.80
32173;DHT22;18679;45.190;5.722;2022-12-07T00:51:24;7.10;63.80
32173;DHT22;18679;45.190;5.722;2022-12-07T00:54:26;7.10;63.90
32173;DHT22;18679;45.190;5.722;2022-12-07T00:57:26;7.10;63.80
32173;DHT22;18679;45.190;5.722;2022-12-07T01:00:27;7.10;63.80
32173;DHT22;18679;45.190;5.722;2022-12-07T01:03:29;7.00;64.00
32173;DHT22;18679;45.190;5.722;2022-12-07T01:06:30;7.00;64.10
32173;DHT22;18679;45.190;5.722;2022-12-07T01:09:31;7.00;64.30
32173;DHT22;18679;45.190;5.722;2022-12-07T01:12:33;6.90;64.40
32173;DHT22;18679;45.190;5.722;2022-12-07T01:15:34;6.80;64.60
32173;DHT22;18679;45.190;5.722;2022-12-07T01:18:36;6.80;64.80
32173;DHT22;18679;45.190;5.722;2022-12-07T01:21:38;6.80;65.00
32173;DHT22;18679;45.190;5.722;2022-12-07T01:24:39;6.80;65.10
32173;DHT22;18679;45.190;5.722;2022-12-07T01:27:40;6.80;65.10
32173;DHT22;18679;45.190;5.722;2022-12-07T01:30:41;6.80;65.20
32173;DHT22;18679;45.190;5.722;2022-12-07T01:33:45;6.80;65.10
32173;DHT22;18679;45.190;5.722;2022-12-07T01:36:47;6.90;65.30
32173;DHT22;18679;45.190;5.722;2022-12-07T01:39:49;6.80;65.10
32173;DHT22;18679;45.190;5.722;2022-12-07T01:42:50;6.80;65.10
32173;DHT22;18679;45.190;5.722;2022-12-07T01:45:51;6.70;65.10
32173;DHT22;18679;45.190;5.722;2022-12-07T01:48:52;6.80;65.20
32173;DHT22;18679;45.190;5.722;2022-12-07T01:52:01;6.80;65.20
32173;DHT22;18679;45.190;5.722;2022-12-07T01:55:08;6.90;65.30
32173;DHT22;18679;45.190;5.722;2022-12-07T01:58:10;6.90;65.20
32173;DHT22;18679;45.190;5.722;2022-12-07T02:01:12;7.00;65.10
32173;DHT22;18679;45.190;5.722;2022-12-07T02:04:13;7.00;65.00
32173;DHT22;18679;45.190;5.722;2022-12-07T02:07:15;7.00;65.00
32173;DHT22;18679;45.190;5.722;2022-12-07T02:10:28;7.00;65.00
32173;DHT22;18679;45.190;5.722;2022-12-07T02:13:32;7.00;65.00
32173;DHT22;18679;45.190;5.722;2022-12-07T02:30:09;7.20;65.00
32173;DHT22;18679;45.190;5.722;2022-12-07T02:33:16;7.20;64.80
32173;DHT22;18679;45.190;5.722;2022-12-07T02:36:26;7.30;64.70
32173;DHT22;18679;45.190;5.722;2022-12-07T02:39:46;7.30;64.60
32173;DHT22;18679;45.190;5.722;2022-12-07T02:42:57;7.40;64.60
32173;DHT22;18679;45.190;5.722;2022-12-07T02:46:22;7.40;64.40
32173;DHT22;18679;45.190;5.722;2022-12-07T02:49:25;7.40;64.30
32173;DHT22;18679;45.190;5.722;2022-12-07T02:52:27;7.30;64.20
32173;DHT22;18679;45.190;5.722;2022-12-07T02:55:33;7.30;64.30
32173;DHT22;18679;45.190;5.722;2022-12-07T03:08:38;7.30;64.50
32173;DHT22;18679;45.190;5.722;2022-12-07T03:11:48;7.40;64.30
32173;DHT22;18679;45.190;5.722;2022-12-07T03:15:05;7.40;64.30
32173;DHT22;18679;45.190;5.722;2022-12-07T03:18:12;7.40;64.30
32173;DHT22;18679;45.190;5.722;2022-12-07T03:21:19;7.40;64.20
32173;DHT22;18679;45.190;5.722;2022-12-07T03:24:24;7.50;64.20
32173;DHT22;18679;45.190;5.722;2022-12-07T03:27:43;7.50;64.20
32173;DHT22;18679;45.190;5.722;2022-12-07T03:30:56;7.50;64.20
32173;DHT22;18679;45.190;5.722;2022-12-07T03:34:06;7.50;64.10
32173;DHT22;18679;45.190;5.722;2022-12-07T03:37:31;7.50;64.00
32173;DHT22;18679;45.190;5.722;2022-12-07T03:40:39;7.40;64.00
32173;DHT22;18679;45.190;5.722;2022-12-07T03:43:42;7.30;64.10
32173;DHT22;18679;45.190;5.722;2022-12-07T03:50:00;7.30;64.40
32173;DHT22;18679;45.190;5.722;2022-12-07T03:53:13;7.30;64.60
32173;DHT22;18679;45.190;5.722;2022-12-07T03:56:16;7.30;64.60
32173;DHT22;18679;45.190;5.722;2022-12-07T03:59:17;7.40;64.60
32173;DHT22;18679;45.190;5.722;2022-12-07T04:02:18;7.40;64.50
32173;DHT22;18679;45.190;5.722;2022-12-07T04:05:20;7.50;64.50
32173;DHT22;18679;45.190;5.722;2022-12-07T04:08:21;7.50;64.40
32173;DHT22;18679;45.190;5.722;2022-12-07T04:11:22;7.60;64.30
32173;DHT22;18679;45.190;5.722;2022-12-07T04:14:23;7.60;64.30
32173;DHT22;18679;45.190;5.722;2022-12-07T04:17:24;7.60;64.20
32173;DHT22;18679;45.190;5.722;2022-12-07T04:20:25;7.70;64.10
32173;DHT22;18679;45.190;5.722;2022-12-07T04:23:26;7.70;63.90
32173;DHT22;18679;45.190;5.722;2022-12-07T04:26:27;7.60;63.80
32173;DHT22;18679;45.190;5.722;2022-12-07T04:29:28;7.60;63.80
32173;DHT22;18679;45.190;5.722;2022-12-07T04:32:29;7.70;63.90
32173;DHT22;18679;45.190;5.722;2022-12-07T04:35:30;7.70;63.90
32173;DHT22;18679;45.190;5.722;2022-12-07T04:38:31;7.80;63.80
32173;DHT22;18679;45.190;5.722;2022-12-07T04:41:32;7.80;63.70
32173;DHT22;18679;45.190;5.722;2022-12-07T04:44:34;7.90;63.80
32173;DHT22;18679;45.190;5.722;2022-12-07T04:47:35;7.90;63.60
32173;DHT22;18679;45.190;5.722;2022-12-07T04:50:36;7.90;63.50
32173;DHT22;18679;45.190;5.722;2022-12-07T04:53:38;7.80;63.40
32173;DHT22;18679;45.190;5.722;2022-12-07T04:56:39;7.70;63.50
32173;DHT22;18679;45.190;5.722;2022-12-07T04:59:40;7.70;63.50
32173;DHT22;18679;45.190;5.722;2022-12-07T05:02:41;7.80;63.50
32173;DHT22;18679;45.190;5.722;2022-12-07T05:05:42;7.80;63.50
32173;DHT22;18679;45.190;5.722;2022-12-07T05:08:43;7.90;63.40
32173;DHT22;18679;45.190;5.722;2022-12-07T05:11:44;7.90;63.20
32173;DHT22;18679;45.190;5.722;2022-12-07T05:14:45;7.90;63.00
32173;DHT22;18679;45.190;5.722;2022-12-07T05:17:46;7.90;63.10
32173;DHT22;18679;45.190;5.722;2022-12-07T05:20:48;7.90;63.00
32173;DHT22;18679;45.190;5.722;2022-12-07T05:23:50;7.90;63.00
32173;DHT22;18679;45.190;5.722;2022-12-07T05:26:50;8.00;63.00
32173;DHT22;18679;45.190;5.722;2022-12-07T05:29:51;8.00;62.90
32173;DHT22;18679;45.190;5.722;2022-12-07T05:32:52;8.00;62.70
32173;DHT22;18679;45.190;5.722;2022-12-07T05:35:53;8.00;62.50
32173;DHT22;18679;45.190;5.722;2022-12-07T05:38:54;7.90;62.40
32173;DHT22;18679;45.190;5.722;2022-12-07T05:41:55;7.90;62.50
32173;DHT22;18679;45.190;5.722;2022-12-07T05:45:14;7.90;62.40
32173;DHT22;18679;45.190;5.722;2022-12-07T05:48:15;7.90;62.20
32173;DHT22;18679;45.190;5.722;2022-12-07T05:51:16;7.90;62.10
32173;DHT22;18679;45.190;5.722;2022-12-07T05:54:17;7.90;62.20
32173;DHT22;18679;45.190;5.722;2022-12-07T05:57:18;7.80;62.20
32173;DHT22;18679;45.190;5.722;2022-12-07T06:00:19;7.80;62.40
32173;DHT22;18679;45.190;5.722;2022-12-07T06:03:20;7.80;62.20
32173;DHT22;18679;45.190;5.722;2022-12-07T06:06:21;7.80;62.10
32173;DHT22;18679;45.190;5.722;2022-12-07T06:09:23;7.90;62.10
32173;DHT22;18679;45.190;5.722;2022-12-07T06:12:25;7.80;62.20
32173;DHT22;18679;45.190;5.722;2022-12-07T06:15:38;7.80;62.20
32173;DHT22;18679;45.190;5.722;2022-12-07T06:18:38;7.90;62.30
32173;DHT22;18679;45.190;5.722;2022-12-07T06:21:40;7.90;62.20
32173;DHT22;18679;45.190;5.722;2022-12-07T06:24:40;7.90;62.30
32173;DHT22;18679;45.190;5.722;2022-12-07T06:27:41;8.00;62.20
32173;DHT22;18679;45.190;5.722;2022-12-07T06:30:42;7.90;62.10
32173;DHT22;18679;45.190;5.722;2022-12-07T06:33:44;7.90;62.10
32173;DHT22;18679;45.190;5.722;2022-12-07T06:36:46;8.00;61.90
32173;DHT22;18679;45.190;5.722;2022-12-07T06:39:51;7.90;61.80
32173;DHT22;18679;45.190;5.722;2022-12-07T06:42:52;7.90;61.90
32173;DHT22;18679;45.190;5.722;2022-12-07T06:45:53;7.90;62.00
32173;DHT22;18679;45.190;5.722;2022-12-07T06:48:55;7.80;62.10
32173;DHT22;18679;45.190;5.722;2022-12-07T06:51:56;7.80;62.10
32173;DHT22;18679;45.190;5.722;2022-12-07T06:54:58;7.80;62.20
32173;DHT22;18679;45.190;5.722;2022-12-07T06:58:00;7.80;62.20
32173;DHT22;18679;45.190;5.722;2022-12-07T07:01:02;7.90;62.20
32173;DHT22;18679;45.190;5.722;2022-12-07T07:04:04;7.90;62.20
32173;DHT22;18679;45.190;5.722;2022-12-07T07:07:06;7.90;62.10
32173;DHT22;18679;45.190;5.722;2022-12-07T07:10:08;7.90;62.20
32173;DHT22;18679;45.190;5.722;2022-12-07T07:13:09;7.80;62.20
32173;DHT22;18679;45.190;5.722;2022-12-07T07:16:10;7.80;62.30
32173;DHT22;18679;45.190;5.722;2022-12-07T07:19:11;7.90;62.50
32173;DHT22;18679;45.190;5.722;2022-12-07T07:22:12;7.90;62.50
32173;DHT22;18679;45.190;5.722;2022-12-07T07:25:13;7.90;62.60
32173;DHT22;18679;45.190;5.722;2022-12-07T07:28:15;7.90;62.50
32173;DHT22;18679;45.190;5.722;2022-12-07T07:31:16;8.00;62.40
32173;DHT22;18679;45.190;5.722;2022-12-07T07:34:17;8.00;62.40
32173;DHT22;18679;45.190;5.722;2022-12-07T07:37:18;8.00;62.40
32173;DHT22;18679;45.190;5.722;2022-12-07T07:40:19;8.00;62.30
32173;DHT22;18679;45.190;5.722;2022-12-07T07:43:20;8.00;62.20
32173;DHT22;18679;45.190;5.722;2022-12-07T07:46:21;8.00;62.10
32173;DHT22;18679;45.190;5.722;2022-12-07T07:49:21;8.00;62.00
32173;DHT22;18679;45.190;5.722;2022-12-07T07:52:22;8.00;62.10
32173;DHT22;18679;45.190;5.722;2022-12-07T07:55:23;8.00;62.00
32173;DHT22;18679;45.190;5.722;2022-12-07T07:58:24;8.00;62.00
32173;DHT22;18679;45.190;5.722;2022-12-07T08:01:26;8.00;61.80
32173;DHT22;18679;45.190;5.722;2022-12-07T08:04:27;8.10;61.70
32173;DHT22;18679;45.190;5.722;2022-12-07T08:07:28;8.10;61.60
32173;DHT22;18679;45.190;5.722;2022-12-07T08:10:29;8.10;61.50
32173;DHT22;18679;45.190;5.722;2022-12-07T08:13:30;8.10;61.50
32173;DHT22;18679;45.190;5.722;2022-12-07T08:16:30;8.10;61.40
32173;DHT22;18679;45.190;5.722;2022-12-07T08:19:31;8.20;61.50
32173;DHT22;18679;45.190;5.722;2022-12-07T08:22:33;8.40;61.40
32173;DHT22;18679;45.190;5.722;2022-12-07T08:25:34;8.30;61.20
32173;DHT22;18679;45.190;5.722;2022-12-07T08:28:36;8.30;61.00
32173;DHT22;18679;45.190;5.722;2022-12-07T08:31:37;8.30;60.90
32173;DHT22;18679;45.190;5.722;2022-12-07T08:34:38;8.30;60.70
32173;DHT22;18679;45.190;5.722;2022-12-07T08:37:39;8.40;60.70
32173;DHT22;18679;45.190;5.722;2022-12-07T08:40:40;8.30;60.50
32173;DHT22;18679;45.190;5.722;2022-12-07T08:43:41;8.30;60.50
32173;DHT22;18679;45.190;5.722;2022-12-07T08:46:46;8.30;60.50
32173;DHT22;18679;45.190;5.722;2022-12-07T08:49:52;8.30;60.60
32173;DHT22;18679;45.190;5.722;2022-12-07T08:52:56;8.40;60.60
32173;DHT22;18679;45.190;5.722;2022-12-07T08:55:58;8.40;60.30
32173;DHT22;18679;45.190;5.722;2022-12-07T08:58:59;8.40;60.10
32173;DHT22;18679;45.190;5.722;2022-12-07T09:02:00;8.50;60.00
32173;DHT22;18679;45.190;5.722;2022-12-07T09:05:01;8.50;59.80
32173;DHT22;18679;45.190;5.722;2022-12-07T09:08:02;8.50;59.70
32173;DHT22;18679;45.190;5.722;2022-12-07T09:11:03;8.50;59.60
32173;DHT22;18679;45.190;5.722;2022-12-07T09:14:04;8.50;59.50
32173;DHT22;18679;45.190;5.722;2022-12-07T09:17:08;8.40;59.40
32173;DHT22;18679;45.190;5.722;2022-12-07T09:20:09;8.40;59.40
32173;DHT22;18679;45.190;5.722;2022-12-07T09:23:10;8.40;59.30
32173;DHT22;18679;45.190;5.722;2022-12-07T09:26:11;8.40;59.30
32173;DHT22;18679;45.190;5.722;2022-12-07T09:29:12;8.30;59.20
32173;DHT22;18679;45.190;5.722;2022-12-07T09:32:13;8.40;59.30
32173;DHT22;18679;45.190;5.722;2022-12-07T09:35:15;8.40;59.30
32173;DHT22;18679;45.190;5.722;2022-12-07T09:38:16;8.40;59.20
32173;DHT22;18679;45.190;5.722;2022-12-07T09:41:18;8.40;59.20
32173;DHT22;18679;45.190;5.722;2022-12-07T09:44:25;8.50;59.20
32173;DHT22;18679;45.190;5.722;2022-12-07T09:47:27;8.50;59.10
32173;DHT22;18679;45.190;5.722;2022-12-07T09:50:30;8.50;59.00
32173;DHT22;18679;45.190;5.722;2022-12-07T09:53:36;8.50;59.00
32173;DHT22;18679;45.190;5.722;2022-12-07T09:56:39;8.40;58.90
32173;DHT22;18679;45.190;5.722;2022-12-07T09:59:40;8.50;58.80
32173;DHT22;18679;45.190;5.722;2022-12-07T10:02:44;8.50;58.70
32173;DHT22;18679;45.190;5.722;2022-12-07T10:05:49;8.60;58.80
32173;DHT22;18679;45.190;5.722;2022-12-07T10:08:51;8.70;58.80
32173;DHT22;18679;45.190;5.722;2022-12-07T10:12:11;8.70;58.80
32173;DHT22;18679;45.190;5.722;2022-12-07T10:15:12;8.70;58.80
32173;DHT22;18679;45.190;5.722;2022-12-07T10:18:35;8.70;58.70
32173;DHT22;18679;45.190;5.722;2022-12-07T10:21:37;8.70;58.70
32173;DHT22;18679;45.190;5.722;2022-12-07T10:24:39;8.60;58.80
32173;DHT22;18679;45.190;5.722;2022-12-07T10:27:43;8.60;58.90
32173;DHT22;18679;45.190;5.722;2022-12-07T10:31:00;8.60;59.00
32173;DHT22;18679;45.190;5.722;2022-12-07T10:34:03;8.50;59.00
32173;DHT22;18679;45.190;5.722;2022-12-07T10:40:33;8.50;59.30
32173;DHT22;18679;45.190;5.722;2022-12-07T10:43:34;8.60;59.40
32173;DHT22;18679;45.190;5.722;2022-12-07T10:50:29;8.70;59.30
32173;DHT22;18679;45.190;5.722;2022-12-07T11:10:19;8.90;58.80
32173;DHT22;18679;45.190;5.722;2022-12-07T11:17:20;8.90;58.60
32173;DHT22;18679;45.190;5.722;2022-12-07T11:24:07;8.90;58.40
32173;DHT22;18679;45.190;5.722;2022-12-07T11:27:37;9.00;58.40
32173;DHT22;18679;45.190;5.722;2022-12-07T11:34:52;9.20;58.10
32173;DHT22;18679;45.190;5.722;2022-12-07T11:38:02;9.10;57.90
32173;DHT22;18679;45.190;5.722;2022-12-07T11:41:09;9.10;57.50
32173;DHT22;18679;45.190;5.722;2022-12-07T11:44:36;9.20;57.20
32173;DHT22;18679;45.190;5.722;2022-12-07T11:47:51;9.20;57.00
32173;DHT22;18679;45.190;5.722;2022-12-07T11:50:57;9.20;56.90
32173;DHT22;18679;45.190;5.722;2022-12-07T11:54:11;9.20;56.80
32173;DHT22;18679;45.190;5.722;2022-12-07T11:57:28;9.20;56.80
32173;DHT22;18679;45.190;5.722;2022-12-07T12:00:32;9.20;57.00
32173;DHT22;18679;45.190;5.722;2022-12-07T12:03:37;9.30;57.00
32173;DHT22;18679;45.190;5.722;2022-12-07T12:06:43;9.20;57.00
32173;DHT22;18679;45.190;5.722;2022-12-07T12:10:03;9.20;57.10
32173;DHT22;18679;45.190;5.722;2022-12-07T12:17:01;9.20;57.10
32173;DHT22;18679;45.190;5.722;2022-12-07T12:23:51;9.10;56.70
32173;DHT22;18679;45.190;5.722;2022-12-07T12:27:06;9.10;56.70
32173;DHT22;18679;45.190;5.722;2022-12-07T12:33:30;9.20;56.80
32173;DHT22;18679;45.190;5.722;2022-12-07T12:39:35;9.40;56.70
32173;DHT22;18679;45.190;5.722;2022-12-07T12:49:38;9.40;56.70
32173;DHT22;18679;45.190;5.722;2022-12-07T12:58:43;9.40;56.70
32173;DHT22;18679;45.190;5.722;2022-12-07T13:01:47;9.40;56.70
32173;DHT22;18679;45.190;5.722;2022-12-07T13:08:24;9.40;56.70
32173;DHT22;18679;45.190;5.722;2022-12-07T13:24:07;9.30;56.70
32173;DHT22;18679;45.190;5.722;2022-12-07T13:27:11;9.30;56.70
32173;DHT22;18679;45.190;5.722;2022-12-07T13:30:19;9.20;56.60
32173;DHT22;18679;45.190;5.722;2022-12-07T13:33:20;9.20;56.60
32173;DHT22;18679;45.190;5.722;2022-12-07T13:36:29;9.20;56.70
32173;DHT22;18679;45.190;5.722;2022-12-07T13:39:51;9.20;56.70
32173;DHT22;18679;45.190;5.722;2022-12-07T13:43:03;9.20;56.80
32173;DHT22;18679;45.190;5.722;2022-12-07T13:46:08;9.20;56.60
32173;DHT22;18679;45.190;5.722;2022-12-07T13:49:25;9.30;56.70
32173;DHT22;18679;45.190;5.722;2022-12-07T13:52:30;9.20;56.60
32173;DHT22;18679;45.190;5.722;2022-12-07T13:55:33;9.20;56.60
32173;DHT22;18679;45.190;5.722;2022-12-07T13:58:34;9.20;56.50
32173;DHT22;18679;45.190;5.722;2022-12-07T14:01:37;9.20;56.60
32173;DHT22;18679;45.190;5.722;2022-12-07T14:04:38;9.20;56.60
32173;DHT22;18679;45.190;5.722;2022-12-07T14:08:00;9.20;56.50
32173;DHT22;18679;45.190;5.722;2022-12-07T14:11:02;9.20;56.30
32173;DHT22;18679;45.190;5.722;2022-12-07T14:14:03;9.20;56.40
32173;DHT22;18679;45.190;5.722;2022-12-07T14:17:15;9.20;56.50
32173;DHT22;18679;45.190;5.722;2022-12-07T14:23:35;9.30;56.50
32173;DHT22;18679;45.190;5.722;2022-12-07T14:26:38;9.40;56.30
32173;DHT22;18679;45.190;5.722;2022-12-07T14:29:40;9.30;56.60
32173;DHT22;18679;45.190;5.722;2022-12-07T14:32:41;9.30;55.80
32173;DHT22;18679;45.190;5.722;2022-12-07T14:35:43;9.30;55.80
32173;DHT22;18679;45.190;5.722;2022-12-07T14:38:45;9.20;55.80
32173;DHT22;18679;45.190;5.722;2022-12-07T14:41:46;9.20;55.90
32173;DHT22;18679;45.190;5.722;2022-12-07T14:44:53;9.10;55.80
32173;DHT22;18679;45.190;5.722;2022-12-07T14:47:54;9.10;55.80
32173;DHT22;18679;45.190;5.722;2022-12-07T14:50:55;9.20;55.90
32173;DHT22;18679;45.190;5.722;2022-12-07T14:53:57;9.20;56.00
32173;DHT22;18679;45.190;5.722;2022-12-07T14:56:58;9.20;55.90
32173;DHT22;18679;45.190;5.722;2022-12-07T14:59:59;9.30;55.90
32173;DHT22;18679;45.190;5.722;2022-12-07T15:03:00;9.30;55.80
32173;DHT22;18679;45.190;5.722;2022-12-07T15:06:01;9.30;55.60
32173;DHT22;18679;45.190;5.722;2022-12-07T15:09:02;9.30;55.60
32173;DHT22;18679;45.190;5.722;2022-12-07T15:12:04;9.30;56.30
32173;DHT22;18679;45.190;5.722;2022-12-07T15:15:05;9.30;55.70
32173;DHT22;18679;45.190;5.722;2022-12-07T15:18:06;9.30;55.60
32173;DHT22;18679;45.190;5.722;2022-12-07T15:21:13;9.30;55.50
32173;DHT22;18679;45.190;5.722;2022-12-07T15:24:14;9.30;56.20
32173;DHT22;18679;45.190;5.722;2022-12-07T15:27:15;9.20;55.30
32173;DHT22;18679;45.190;5.722;2022-12-07T15:30:16;9.10;55.30
32173;DHT22;18679;45.190;5.722;2022-12-07T15:33:17;9.20;55.40
32173;DHT22;18679;45.190;5.722;2022-12-07T15:36:24;9.20;55.50
32173;DHT22;18679;45.190;5.722;2022-12-07T15:39:25;9.10;55.40
32173;DHT22;18679;45.190;5.722;2022-12-07T15:42:26;9.10;55.50
32173;DHT22;18679;45.190;5.722;2022-12-07T15:45:27;9.10;55.60
32173;DHT22;18679;45.190;5.722;2022-12-07T15:48:28;9.10;55.60
32173;DHT22;18679;45.190;5.722;2022-12-07T15:51:34;9.10;55.70
32173;DHT22;18679;45.190;5.722;2022-12-07T15:54:35;9.10;55.70
32173;DHT22;18679;45.190;5.722;2022-12-07T15:57:37;9.20;55.70
32173;DHT22;18679;45.190;5.722;2022-12-07T16:00:38;9.20;55.70
32173;DHT22;18679;45.190;5.722;2022-12-07T16:03:39;9.20;55.40
32173;DHT22;18679;45.190;5.722;2022-12-07T16:06:40;9.30;55.30
32173;DHT22;18679;45.190;5.722;2022-12-07T16:09:45;9.20;55.10
32173;DHT22;18679;45.190;5.722;2022-12-07T16:12:46;9.20;55.20
32173;DHT22;18679;45.190;5.722;2022-12-07T16:15:47;9.10;55.20
32173;DHT22;18679;45.190;5.722;2022-12-07T16:18:50;9.20;55.40
32173;DHT22;18679;45.190;5.722;2022-12-07T16:21:51;9.20;55.40
32173;DHT22;18679;45.190;5.722;2022-12-07T16:24:52;9.20;55.30
32173;DHT22;18679;45.190;5.722;2022-12-07T16:27:53;9.20;55.10
32173;DHT22;18679;45.190;5.722;2022-12-07T16:31:05;9.20;55.10
32173;DHT22;18679;45.190;5.722;2022-12-07T16:34:08;9.20;55.10
32173;DHT22;18679;45.190;5.722;2022-12-07T16:37:09;9.20;55.20
32173;DHT22;18679;45.190;5.722;2022-12-07T16:40:10;9.20;55.00
32173;DHT22;18679;45.190;5.722;2022-12-07T16:43:13;9.30;54.90
32173;DHT22;18679;45.190;5.722;2022-12-07T16:46:14;9.30;54.80
32173;DHT22;18679;45.190;5.722;2022-12-07T16:49:16;9.30;54.80
32173;DHT22;18679;45.190;5.722;2022-12-07T16:52:20;9.30;54.80
32173;DHT22;18679;45.190;5.722;2022-12-07T16:55:21;9.30;54.40
32173;DHT22;18679;45.190;5.722;2022-12-07T16:58:22;9.30;54.50
32173;DHT22;18679;45.190;5.722;2022-12-07T17:01:23;9.30;54.70
32173;DHT22;18679;45.190;5.722;2022-12-07T17:04:24;9.30;54.80
32173;DHT22;18679;45.190;5.722;2022-12-07T17:07:25;9.30;54.60
32173;DHT22;18679;45.190;5.722;2022-12-07T17:10:26;9.30;54.60
32173;DHT22;18679;45.190;5.722;2022-12-07T17:13:26;9.30;54.60
32173;DHT22;18679;45.190;5.722;2022-12-07T17:16:48;9.30;54.60
32173;DHT22;18679;45.190;5.722;2022-12-07T17:19:50;9.20;54.30
32173;DHT22;18679;45.190;5.722;2022-12-07T17:22:52;9.20;54.40
32173;DHT22;18679;45.190;5.722;2022-12-07T17:25:53;9.20;54.40
32173;DHT22;18679;45.190;5.722;2022-12-07T17:28:54;9.20;54.30
32173;DHT22;18679;45.190;5.722;2022-12-07T17:31:55;9.20;54.50
32173;DHT22;18679;45.190;5.722;2022-12-07T17:34:57;9.20;54.50
32173;DHT22;18679;45.190;5.722;2022-12-07T17:37:58;9.20;54.40
32173;DHT22;18679;45.190;5.722;2022-12-07T17:40:59;9.30;55.00
32173;DHT22;18679;45.190;5.722;2022-12-07T17:44:01;9.30;54.40
32173;DHT22;18679;45.190;5.722;2022-12-07T17:47:02;9.30;54.40
32173;DHT22;18679;45.190;5.722;2022-12-07T17:50:05;9.30;54.40
32173;DHT22;18679;45.190;5.722;2022-12-07T17:53:11;9.30;54.30
32173;DHT22;18679;45.190;5.722;2022-12-07T17:56:11;9.30;54.20
32173;DHT22;18679;45.190;5.722;2022-12-07T17:59:13;9.30;54.10
32173;DHT22;18679;45.190;5.722;2022-12-07T18:02:14;9.40;54.20
32173;DHT22;18679;45.190;5.722;2022-12-07T18:05:15;9.40;54.10
32173;DHT22;18679;45.190;5.722;2022-12-07T18:08:16;9.40;53.90
32173;DHT22;18679;45.190;5.722;2022-12-07T18:11:18;9.40;53.90
32173;DHT22;18679;45.190;5.722;2022-12-07T18:14:19;9.40;53.80
32173;DHT22;18679;45.190;5.722;2022-12-07T18:17:20;9.40;53.80
32173;DHT22;18679;45.190;5.722;2022-12-07T18:20:21;9.40;53.80
32173;DHT22;18679;45.190;5.722;2022-12-07T18:23:23;9.40;53.70
32173;DHT22;18679;45.190;5.722;2022-12-07T18:26:25;9.40;53.60
32173;DHT22;18679;45.190;5.722;2022-12-07T18:29:25;9.40;53.50
32173;DHT22;18679;45.190;5.722;2022-12-07T18:32:26;9.40;53.70
32173;DHT22;18679;45.190;5.722;2022-12-07T18:35:30;9.40;53.70
32173;DHT22;18679;45.190;5.722;2022-12-07T18:38:34;9.40;53.70
32173;DHT22;18679;45.190;5.722;2022-12-07T18:41:37;9.50;53.60
32173;DHT22;18679;45.190;5.722;2022-12-07T18:44:38;9.40;53.50
32173;DHT22;18679;45.190;5.722;2022-12-07T18:47:39;9.40;53.40
32173;DHT22;18679;45.190;5.722;2022-12-07T18:50:42;9.50;53.20
32173;DHT22;18679;45.190;5.722;2022-12-07T18:53:43;9.40;53.20
32173;DHT22;18679;45.190;5.722;2022-12-07T18:56:44;9.40;53.50
32173;DHT22;18679;45.190;5.722;2022-12-07T18:59:45;9.40;53.50
32173;DHT22;18679;45.190;5.722;2022-12-07T19:02:46;9.30;53.40
32173;DHT22;18679;45.190;5.722;2022-12-07T19:05:47;9.40;53.70
32173;DHT22;18679;45.190;5.722;2022-12-07T19:08:48;9.40;53.80
32173;DHT22;18679;45.190;5.722;2022-12-07T19:11:49;9.30;53.80
32173;DHT22;18679;45.190;5.722;2022-12-07T19:14:50;9.30;53.90
32173;DHT22;18679;45.190;5.722;2022-12-07T19:17:51;9.30;54.00
32173;DHT22;18679;45.190;5.722;2022-12-07T19:20:52;9.30;54.00
32173;DHT22;18679;45.190;5.722;2022-12-07T19:23:53;9.40;54.00
32173;DHT22;18679;45.190;5.722;2022-12-07T19:26:55;9.40;53.90
32173;DHT22;18679;45.190;5.722;2022-12-07T19:29:56;9.40;53.90
32173;DHT22;18679;45.190;5.722;2022-12-07T19:32:57;9.40;54.00
32173;DHT22;18679;45.190;5.722;2022-12-07T19:35:59;9.40;54.20
32173;DHT22;18679;45.190;5.722;2022-12-07T19:39:00;9.30;54.30
32173;DHT22;18679;45.190;5.722;2022-12-07T19:42:03;9.30;54.60
32173;DHT22;18679;45.190;5.722;2022-12-07T19:45:05;9.30;54.80
32173;DHT22;18679;45.190;5.722;2022-12-07T19:48:06;9.30;54.80
32173;DHT22;18679;45.190;5.722;2022-12-07T19:51:07;9.30;54.80
32173;DHT22;18679;45.190;5.722;2022-12-07T19:54:09;9.30;54.70
32173;DHT22;18679;45.190;5.722;2022-12-07T19:57:10;9.30;54.60
32173;DHT22;18679;45.190;5.722;2022-12-07T20:00:15;9.30;54.60
32173;DHT22;18679;45.190;5.722;2022-12-07T20:03:16;9.30;54.80
32173;DHT22;18679;45.190;5.722;2022-12-07T20:06:19;9.30;54.90
32173;DHT22;18679;45.190;5.722;2022-12-07T20:09:20;9.30;54.90
32173;DHT22;18679;45.190;5.722;2022-12-07T20:12:21;9.20;54.80
32173;DHT22;18679;45.190;5.722;2022-12-07T20:15:41;9.20;54.80
32173;DHT22;18679;45.190;5.722;2022-12-07T20:18:41;9.20;54.70
32173;DHT22;18679;45.190;5.722;2022-12-07T20:21:44;9.30;54.60
32173;DHT22;18679;45.190;5.722;2022-12-07T20:24:44;9.20;54.50
32173;DHT22;18679;45.190;5.722;2022-12-07T20:27:45;9.20;54.70
32173;DHT22;18679;45.190;5.722;2022-12-07T20:30:47;9.20;54.80
32173;DHT22;18679;45.190;5.722;2022-12-07T20:33:48;9.20;54.90
32173;DHT22;18679;45.190;5.722;2022-12-07T20:36:49;9.20;54.80
32173;DHT22;18679;45.190;5.722;2022-12-07T20:39:50;9.20;54.60
32173;DHT22;18679;45.190;5.722;2022-12-07T20:42:51;9.20;54.50
32173;DHT22;18679;45.190;5.722;2022-12-07T20:45:52;9.20;54.80
32173;DHT22;18679;45.190;5.722;2022-12-07T20:48:54;9.20;55.00
32173;DHT22;18679;45.190;5.722;2022-12-07T20:51:57;9.20;55.20
32173;DHT22;18679;45.190;5.722;2022-12-07T20:54:58;9.20;55.30
32173;DHT22;18679;45.190;5.722;2022-12-07T20:57:59;9.20;55.10
32173;DHT22;18679;45.190;5.722;2022-12-07T21:01:00;9.30;55.10
32173;DHT22;18679;45.190;5.722;2022-12-07T21:04:01;9.30;54.80
32173;DHT22;18679;45.190;5.722;2022-12-07T21:07:04;9.30;54.60
32173;DHT22;18679;45.190;5.722;2022-12-07T21:10:05;9.20;54.20
32173;DHT22;18679;45.190;5.722;2022-12-07T21:13:06;9.20;54.20
32173;DHT22;18679;45.190;5.722;2022-12-07T21:16:12;9.20;54.10
32173;DHT22;18679;45.190;5.722;2022-12-07T21:19:14;9.20;54.10
32173;DHT22;18679;45.190;5.722;2022-12-07T21:22:14;9.20;53.80
32173;DHT22;18679;45.190;5.722;2022-12-07T21:25:16;9.20;53.50